AirNav   Air Wisconsin pilot careers
 
 1378 users online  

11A Clayton Municipal Airport
Clayton, Alabama, USA

GOING TO CLAYTON?


FAA INFORMATION EFFECTIVE 16 AUGUST 2018

Location

FAA Identifier: 11A
Lat/Long: 31-53-00.0000N / 085-29-06.8000W
31-53.000000N / 085-29.113333W
31.8833333 / -85.4852222
(estimated)
Elevation: 434.9 ft. / 132.6 m (surveyed)
Variation: 04W (2015)
From city: 2 miles W of CLAYTON, AL
Time zone: UTC -5 (UTC -6 during Standard Time)
Zip code: 36016

Airport Operations

Airport use: Open to the public
Activation date: 02/1970
Control tower: no
ARTCC: JACKSONVILLE CENTER
FSS: ANNISTON FLIGHT SERVICE STATION
NOTAMs facility: ANB (NOTAM-D service available)
Attendance: UNATNDD
Wind indicator: lighted
Segmented circle: yes
Lights: ACTVT HIRL RY 9/27 AND PAPI RY 9 AND 27 - CTAF.
Beacon: white-green (lighted land airport)
Operates sunset to sunrise.

Airport Communications

CTAF: 122.9
WX AWOS-3: 118.775 (334-775-8414)
CAIRNS APPROACH: 121.1
CAIRNS DEPARTURE: 121.1
WX ASOS at EUF (19 nm E): 128.325 (334-687-5596)
  • APCH/DEP SVCS PRVDD BY ATLANTA ARTCC ON FREQS 120.55/270.25 (MONTGOMERY RCAG) WHEN CAIRNS APCH/DEP CLSD.

Nearby radio navigation aids

VOR radial/distance  VOR name  Freq  Var
EUFr255/18.5EUFAULA VORTAC109.2002E
HEYr019/(31.7)HANCHEY VOR110.6003W
RRSr354/36.0WIREGRASS VORTAC111.6002E
LSFr225/36.8LAWSON VOR/DME111.4002W
TGEr163/37.3TUSKEGEE VOR/DME117.3002E
OZRr021/38.9CAIRNS VOR/DME111.2003W

 
NDB name  Hdg/Dist  Freq  Var  ID
HANCHEY019/31.622103WHYE .... -.-- .
BLOOD088/31.836504WTOI - --- ..
LOWE026/34.026903WLOR .-.. --- .-.
LAWSON226/34.033502WAWS .- .-- ...

Airport Services

Parking: tiedowns
Bottled oxygen: NONE
Bulk oxygen: NONE

Runway Information

Runway 9/27

Dimensions: 5010 x 80 ft. / 1527 x 24 m
Surface: asphalt, in fair condition
Runway edge lights: high intensity
Runway edge markings: MARKINGS POOR DUE TO FADING
RUNWAY 9  RUNWAY 27
Latitude: 31-53.047310N31-52.951598N
Longitude: 085-29.594240W085-28.632727W
Elevation: 422.0 ft.434.3 ft.
Gradient: 0.3% UP0.3% DOWN
Traffic pattern: leftleft
Runway heading: 101 magnetic, 097 true281 magnetic, 277 true
Displaced threshold: 278 ft.no
Markings: nonprecision, in poor conditionnonprecision, in poor condition
Visual slope indicator: 2-light PAPI on left (3.20 degrees glide path)2-light PAPI on left (3.75 degrees glide path)
Runway end identifier lights: yesyes
Touchdown point: yes, no lightsyes, no lights
Obstructions: 28 ft. tree, 469 ft. from runway, 20 ft. right of centerline, 16:1 slope to clear
APCH RATIO 26:1 FM DSPLCD THLD.
5 ft. tree, 326 ft. from runway, 54 ft. left of centerline, 25:1 slope to clear
RWY 27 +15 FT TREE 171 FT FROM RWY END AND 125 FT R.

Airport Ownership and Management from official FAA records

Ownership: Publicly-owned
Owner: CITY OF CLAYTON
PO BOX 385
CLAYTON, AL 36016
Phone 334-775-9176
Manager: CITY OF CLAYTON
BOX 385
CLAYTON, AL 36016
Phone 334-775-9176

Airport Operational Statistics

Aircraft based on the field: 1
Jet airplanes: 1
    
Aircraft operations: avg 30/week *
79% transient general aviation
21% local general aviation
* for 12-month period ending 28 February 2017

Additional Remarks

DEER AND BIRD ACTVTY ON AND INVOF RWY.

Instrument Procedures

NOTE: All procedures below are presented as PDF files. If you need a reader for these files, you should download the free Adobe Reader.

NOT FOR NAVIGATION. Please procure official charts for flight.
FAA instrument procedures published for use from 16 August 2018 at 0901Z to 13 September 2018 at 0900Z.

 
IAPs - Instrument Approach Procedures
RNAV (GPS) RWY 09   download (211KB)
RNAV (GPS) RWY 27   download (189KB)
NOTE: Special Alternate Minimums apply   download
NOTE: Special Take-Off Minimums/Departure Procedures apply   download (248KB)

Other nearby airports with instrument procedures:

KEUF - Weedon Field Airport (19 nm E)
KTOI - Troy Municipal Airport at N Kenneth Campbell Field (27 nm W)
71J - Ozark-Blackwell Field Airport (28 nm S)
0J6 - Headland Municipal Airport (32 nm S)
KHEY - Hanchey Army Heliport (Fort Rucker) (33 nm S)
 
Loc | Ops | Rwys | IFR | FBO | Links
Com | Nav | Svcs | Stats | Notes


 
Area around 11A (Clayton Municipal Airport)
 
Road maps at: MapQuest Bing Google
 
Aerial photo
WARNING: Photo may not be current or correct
Aerial photo of 11A (Clayton Municipal Airport)
Photo courtesy of Eddie Yell / Boyd Bros Transportation
Photo taken 22-Mar-2009

Do you have a better or more recent aerial photo of Clayton Municipal Airport that you would like to share? If so, please send us your photo.

 
Sectional chart

 
Airport distance calculator
Flying to Clayton Municipal Airport? Find the distance to fly.

From to 11A

Sunrise and sunset
Times for 16-Aug-2018
 Local
(UTC-5)
 Zulu
(UTC)
Morning civil twilight05:4310:43
Sunrise06:0811:08
Sunset19:2400:24
Evening civil twilight19:5000:50

Current date and time
Zulu (UTC)  16-Aug-2018 14:16:42
Local (UTC-5)  16-Aug-2018 09:16:42
 
METAR
KEUF 
19nm E 
161358Z AUTO VRB03KT 10SM OVC008 27/25 A3016 RMK AO2 SLP209 T02720250
KTOI 
27nm W 
161353Z AUTO 18003KT 6SM BR OVC006 24/24 A3018 RMK AO2 SLP214 T02440239
KDHN 
34nm S 
161400Z 17005KT 10SM BKN010 28/23 A3020 RMK AO2 T02780233
KLOR 
35nm SW 
161358Z AUTO 18003KT 10SM CLR 28/25 A3016 RMK AO2 LTG DSNT S SLP194 T02800245
KLSF 
36nm NE 
161356Z AUTO 23004KT 10SM OVC007 26/26 A3017 RMK AO2 CIG 005V007 CIG 006 RWY33 SLP220 T02550255 $
KSXS 
36nm SW 
161358Z AUTO 00000KT 10SM FEW010 27/24 A3016 RMK AO2 LTG DSNT S SLP211 T02700239
TAF
KTOI 
27nm W 
161120Z 1612/1712 00000KT 1/2SM FG OVC003 TEMPO 1613/1614 3SM BR BKN005 FM161400 14004KT P6SM SCT005 SCT250 FM161800 15004KT P6SM SHRA VCTS BKN050CB FM170200 18003KT P6SM OVC250 FM170600 16002KT 4SM BR BKN003
NOTAMs
Click for the latest NOTAMs
NOTAMs are issued by the DoD/FAA and will open in a separate window not controlled by AirNav.

 

 
 

Would you like to see your business listed on this page?

 If your business provides an interesting product or service to pilots, flight crews, aircraft, or users of the Clayton Municipal Airport, you should consider listing it here.  To start the listing process, click on the button below
 
Add a business
 

Other Pages about Clayton Municipal Airport

Update a link
 
Copyright © AirNav, LLC. All rights reserved. Privacy Policy  Contact